Gillette, WY

5:39 PM MDT on August 29, 2014 (GMT -0600)
RAWS ECHETA WY US | Change Station
CLOSE
Current Station
Personal Weather Station
Location: Gillette, WY
Elevation: 4396 ft
Nearby Weather Stations

Elev 4396 ft 44.47 °N, 105.84 °W | Updated 48 minutes ago

Partly Cloudy
Partly Cloudy
75 °F
Feels Like 77 °F
N
7
Wind Variable Wind from NNE
Gusts 14.0 mph

Today
High -- | Low -- °F
--% Chance of Precip.
Yesterday
High -- | Low -- °F
Precip. -- in
6:21 AM 7:44 PM
Waxing Crescent, 17% visible
Pressure 29.91 in
Visibility 10.0 miles
Clouds Scattered Clouds 11000 ft
Heat Index 77 °F
Dew Point 47 °F
Humidity 37%
Rainfall 0.00 in
Snow Depth Not available.
UV 3 out of 12
Pollen 8.30 out of 12
Air Quality Not available.
Flu Activity Not available.
METAR KGCC 292253Z AUTO 01006KT 10SM SCT110 23/09 A3003 RMK AO2 SLP129 T02330094

More Conditions Fewer Conditions

Pressure 29.91 in
Visibility 10.0 miles
Clouds Scattered Clouds 11000 ft
Heat Index 77 °F
Dew Point 47 °F
Humidity 37%
Rainfall 0.00 in
Snow Depth Not available.
UV 3 out of 12
Pollen 8.30 out of 12
Air Quality Not available.
Flu Activity Not available.
METAR KGCC 292253Z AUTO 01006KT 10SM SCT110 23/09 A3003 RMK AO2 SLP129 T02330094

More Conditions Fewer Conditions

10-Day Weather Forecast

Almanac

Astronomy

Aug. 29, 2014 Rise Set
Actual Time 6:21 AM MDT 7:44 PM MDT
Civil Twilight 5:51 AM MDT 8:14 PM MDT
Nautical Twilight 5:14 AM MDT 8:51 PM MDT
Astronomical Twilight 4:35 AM MDT 9:29 PM MDT
Moon 10:24 AM MDT 9:31 PM MDT
Length of Visible Light 14h 23m
Length of Day
13h 22m
Tomorrow will be 2m 56s shorter.
Waxing Crescent, 17% of the Moon is Illuminated
Today
Waxing Crescent
Sep 2
First Quarter
Sep 8
Full
Sep 15
Last Quarter
Sep 24
New

Today's Extremes

State Highs State Lows

Community

WunderPhotos

Upload Photos

1,748,373 photos uploaded!

Nearby

Snow Depth

Station Depth Elevation
Cole Canyon 0 in 5910 ft
Hansen Sawmill 0 in 8360 ft
Middle Powder 0 in 7760 ft
Casper Mountain 0 in 7850 ft
Marquette 0 in 8760 ft

Earthquake Activity

City Distance Mag. Time & Date
No recent earthquake activity has been reported nearby.
Minimum magnitude displayed is 2.5.

Coastal Water Temperatures

Place Temperature
No Stations Reporting

Nearby Weather Stations